Doris Moran — WRU2125 — position and weather

sailwx.info

Track history (hours):
 
Tides and Currents Weather Stations Pressure Air Temp Water Temp Dewpoint Dewpoint Depression Visibility Wind Speed Wind Dir Waves Ship Positions

Doris Moran

Owner: MORAN TOWING CORPORATION, New Canaan, CT. More information available from US FCC via Universal Licensing System and Coast Guard Vessel Documentation Center.

Last reported at 2015-Sep-02 09:33 UTC. Time now 2015-Sep-02 10:34 UTC.
Position N 41°18' W 072°54'.

Length 36 m; draft 5.3 m.

Type: Ship. MMSI: 366939790.

Date/timePositionNaut miles runAvg speedWind from/ knotsBaromVisibWave heightAir tempDewpointWater temp
2015-Sep-02 09:33N 41°18' W 072°54'0 0.0
2015-Sep-02 08:33N 41°18' W 072°54'0 0.0
2015-Sep-02 07:33N 41°18' W 072°54'0 0.0
2015-Sep-02 06:33N 41°18' W 072°54'0 0.0
2015-Sep-02 05:33N 41°18' W 072°54'0 0.0
2015-Sep-02 04:33N 41°18' W 072°54'0 0.0
2015-Sep-02 03:33N 41°18' W 072°54'0 0.0
2015-Sep-02 02:33N 41°18' W 072°54'0 0.1
2015-Sep-02 01:33N 41°18' W 072°54'6 6.4
2015-Sep-02 00:33N 41°12' W 072°51'1010.4
2015-Sep-01 23:33N 41°11' W 072°37'5 5.2
2015-Sep-01 22:34N 41°10' W 072°30'8 7.8
2015-Sep-01 21:34N 41°12' W 072°20'7 7.2
2015-Sep-01 20:33N 41°14' W 072°11'8 7.6
2015-Sep-01 19:33N 41°14' W 072°01'9 9.3
2015-Sep-01 18:33N 41°16' W 071°49'1010.3
2015-Sep-01 17:33N 41°18' W 071°36'1010.4
2015-Sep-01 16:33N 41°18' W 071°22'10 9.9
2015-Sep-01 15:33N 41°22' W 071°10'10 9.8
2015-Sep-01 14:33N 41°28' W 070°59'10 9.7
2015-Sep-01 13:31N 41°32' W 070°47'5 4.8
2015-Sep-01 12:27N 41°36' W 070°43'8 9.3
2015-Sep-01 11:33N 41°44' W 070°38'8 6.8
2015-Sep-01 10:26N 41°47' W 070°29'44 9.0
2015-Sep-01 05:33N 42°23' W 071°03'1 0.6
2015-Sep-01 04:33N 42°23' W 071°04'0 0.0
2015-Sep-01 03:23N 42°23' W 071°04'  
2015-Aug-29 18:33N 41°10' W 072°25'9 9.1
2015-Aug-29 17:33N 41°07' W 072°37'29 6.6
2015-Aug-29 13:11N 41°01' W 073°14'4 7.0
2015-Aug-29 12:33N 41°01' W 073°20'7 6.9
2015-Aug-29 11:32N 40°59' W 073°29'7 6.8
2015-Aug-29 10:29N 40°55' W 073°37'9 7.4
2015-Aug-29 09:13N 40°50' W 073°47'4 6.5
2015-Aug-29 08:33N 40°48' W 073°52'6 5.5
2015-Aug-29 07:33N 40°45' W 073°58'4 4.0
2015-Aug-29 06:33N 40°42' W 074°02'6 5.9
2015-Aug-29 05:33N 40°48' W 073°59'6 0.2
2015-Aug-27 23:33N 40°42' W 074°02'6 5.9
2015-Aug-27 22:33N 40°39' W 074°09'0 0.3
2015-Aug-27 21:33N 40°40' W 074°09'0 0.0
2015-Aug-27 20:33N 40°40' W 074°09'0 0.2
2015-Aug-27 19:34N 40°40' W 074°09'4 4.0
2015-Aug-27 18:33N 40°39' W 074°03'1 0.9
2015-Aug-27 17:33N 40°40' W 074°04'3 2.7
2015-Aug-27 16:33N 40°39' W 074°08'1 1.1
2015-Aug-27 15:34N 40°39' W 074°09'5 5.2
2015-Aug-27 14:33N 40°37' W 074°03'4 4.1
2015-Aug-27 13:31N 40°38' W 074°08'0 0.0
2015-Aug-27 12:33N 40°38' W 074°08'1 1.3
2015-Aug-27 11:33N 40°38' W 074°09'1 1.3
2015-Aug-27 10:33N 40°38' W 074°08'0 0.0
2015-Aug-27 09:33N 40°38' W 074°08'1 1.0
2015-Aug-27 08:33N 40°39' W 074°07'0 0.0
2015-Aug-27 07:33N 40°39' W 074°07'0 0.0
2015-Aug-27 06:33N 40°39' W 074°07'1 1.0
2015-Aug-27 05:32N 40°38' W 074°08'2 1.7
2015-Aug-27 04:34N 40°39' W 074°10'1 1.1
2015-Aug-27 03:33N 40°38' W 074°11'3 2.7
2015-Aug-27 02:33N 40°38' W 074°08'2 2.4
2015-Aug-27 01:34N 40°41' W 074°09'2 2.5
2015-Aug-27 00:34N 40°39' W 074°07'3 3.2
2015-Aug-26 23:34N 40°39' W 074°02'2 2.2
2015-Aug-26 22:34N 40°41' W 074°01'3 2.8
2015-Aug-26 21:34N 40°39' W 074°03'2 1.5
2015-Aug-26 20:33N 40°37' W 074°03'4 4.1
2015-Aug-26 19:33N 40°38' W 074°08'0 0.0
2015-Aug-26 18:32N 40°38' W 074°08'0 0.0
2015-Aug-26 17:33N 40°38' W 074°08'1 1.2
2015-Aug-26 16:34N 40°39' W 074°09'0 0.3
2015-Aug-26 15:34N 40°39' W 074°09'2 1.6
2015-Aug-26 14:33N 40°39' W 074°07'1 0.8
2015-Aug-26 13:33N 40°38' W 074°08'0 0.1
2015-Aug-26 12:33N 40°39' W 074°08'0 0.0
2015-Aug-26 11:33N 40°38' W 074°08'0 0.0
2015-Aug-26 10:33N 40°38' W 074°08'0 0.0
2015-Aug-26 09:33N 40°38' W 074°08'0 0.0
2015-Aug-26 08:33N 40°38' W 074°08'0 0.0
2015-Aug-26 07:33N 40°38' W 074°08'0 0.0
2015-Aug-26 06:33N 40°38' W 074°08'0 0.0
2015-Aug-26 05:33N 40°38' W 074°08'0 0.0
2015-Aug-26 04:33N 40°38' W 074°08'0 0.0
2015-Aug-26 03:33N 40°38' W 074°08'0 0.0
2015-Aug-26 02:33N 40°38' W 074°08'0 0.0
2015-Aug-26 01:33N 40°38' W 074°08'5 4.7
2015-Aug-26 00:33N 40°41' W 074°02'  
Track history (hours):
 
Tides and Currents Weather Stations Pressure Air Temp Water Temp Dewpoint Dewpoint Depression Visibility Wind Speed Wind Dir Waves Ship Positions

Doris Moran

Owner: MORAN TOWING CORPORATION, New Canaan, CT. More information available from US FCC via Universal Licensing System and Coast Guard Vessel Documentation Center.

Last reported at 2015-Sep-02 09:33 UTC. Time now 2015-Sep-02 10:34 UTC.
Position N 41°18' W 072°54'.

Length 36 m; draft 5.3 m.

Type: Ship. MMSI: 366939790.

Date/timePositionNaut miles runAvg speedWind from/ knotsBaromVisibWave heightAir tempDewpointWater temp
2015-Sep-02 09:33N 41°18' W 072°54'0 0.0
2015-Sep-02 08:33N 41°18' W 072°54'0 0.0
2015-Sep-02 07:33N 41°18' W 072°54'0 0.0
2015-Sep-02 06:33N 41°18' W 072°54'0 0.0
2015-Sep-02 05:33N 41°18' W 072°54'0 0.0
2015-Sep-02 04:33N 41°18' W 072°54'0 0.0
2015-Sep-02 03:33N 41°18' W 072°54'0 0.0
2015-Sep-02 02:33N 41°18' W 072°54'0 0.1
2015-Sep-02 01:33N 41°18' W 072°54'6 6.4
2015-Sep-02 00:33N 41°12' W 072°51'1010.4
2015-Sep-01 23:33N 41°11' W 072°37'5 5.2
2015-Sep-01 22:34N 41°10' W 072°30'8 7.8
2015-Sep-01 21:34N 41°12' W 072°20'7 7.2
2015-Sep-01 20:33N 41°14' W 072°11'8 7.6
2015-Sep-01 19:33N 41°14' W 072°01'9 9.3
2015-Sep-01 18:33N 41°16' W 071°49'1010.3
2015-Sep-01 17:33N 41°18' W 071°36'1010.4
2015-Sep-01 16:33N 41°18' W 071°22'10 9.9
2015-Sep-01 15:33N 41°22' W 071°10'10 9.8
2015-Sep-01 14:33N 41°28' W 070°59'10 9.7
2015-Sep-01 13:31N 41°32' W 070°47'5 4.8
2015-Sep-01 12:27N 41°36' W 070°43'8 9.3
2015-Sep-01 11:33N 41°44' W 070°38'8 6.8
2015-Sep-01 10:26N 41°47' W 070°29'44 9.0
2015-Sep-01 05:33N 42°23' W 071°03'1 0.6
2015-Sep-01 04:33N 42°23' W 071°04'0 0.0
2015-Sep-01 03:23N 42°23' W 071°04'  
2015-Aug-29 18:33N 41°10' W 072°25'9 9.1
2015-Aug-29 17:33N 41°07' W 072°37'29 6.6
2015-Aug-29 13:11N 41°01' W 073°14'4 7.0
2015-Aug-29 12:33N 41°01' W 073°20'7 6.9
2015-Aug-29 11:32N 40°59' W 073°29'7 6.8
2015-Aug-29 10:29N 40°55' W 073°37'9 7.4
2015-Aug-29 09:13N 40°50' W 073°47'4 6.5
2015-Aug-29 08:33N 40°48' W 073°52'6 5.5
2015-Aug-29 07:33N 40°45' W 073°58'4 4.0
2015-Aug-29 06:33N 40°42' W 074°02'6 5.9
2015-Aug-29 05:33N 40°48' W 073°59'6 0.2
2015-Aug-27 23:33N 40°42' W 074°02'6 5.9
2015-Aug-27 22:33N 40°39' W 074°09'0 0.3
2015-Aug-27 21:33N 40°40' W 074°09'0 0.0
2015-Aug-27 20:33N 40°40' W 074°09'0 0.2
2015-Aug-27 19:34N 40°40' W 074°09'4 4.0
2015-Aug-27 18:33N 40°39' W 074°03'1 0.9
2015-Aug-27 17:33N 40°40' W 074°04'3 2.7
2015-Aug-27 16:33N 40°39' W 074°08'1 1.1
2015-Aug-27 15:34N 40°39' W 074°09'5 5.2
2015-Aug-27 14:33N 40°37' W 074°03'4 4.1
2015-Aug-27 13:31N 40°38' W 074°08'0 0.0
2015-Aug-27 12:33N 40°38' W 074°08'1 1.3
2015-Aug-27 11:33N 40°38' W 074°09'1 1.3
2015-Aug-27 10:33N 40°38' W 074°08'0 0.0
2015-Aug-27 09:33N 40°38' W 074°08'1 1.0
2015-Aug-27 08:33N 40°39' W 074°07'0 0.0
2015-Aug-27 07:33N 40°39' W 074°07'0 0.0
2015-Aug-27 06:33N 40°39' W 074°07'1 1.0
2015-Aug-27 05:32N 40°38' W 074°08'2 1.7
2015-Aug-27 04:34N 40°39' W 074°10'1 1.1
2015-Aug-27 03:33N 40°38' W 074°11'3 2.7
2015-Aug-27 02:33N 40°38' W 074°08'2 2.4
2015-Aug-27 01:34N 40°41' W 074°09'2 2.5
2015-Aug-27 00:34N 40°39' W 074°07'3 3.2
2015-Aug-26 23:34N 40°39' W 074°02'2 2.2
2015-Aug-26 22:34N 40°41' W 074°01'3 2.8
2015-Aug-26 21:34N 40°39' W 074°03'2 1.5
2015-Aug-26 20:33N 40°37' W 074°03'4 4.1
2015-Aug-26 19:33N 40°38' W 074°08'0 0.0
2015-Aug-26 18:32N 40°38' W 074°08'0 0.0
2015-Aug-26 17:33N 40°38' W 074°08'1 1.2
2015-Aug-26 16:34N 40°39' W 074°09'0 0.3
2015-Aug-26 15:34N 40°39' W 074°09'2 1.6
2015-Aug-26 14:33N 40°39' W 074°07'1 0.8
2015-Aug-26 13:33N 40°38' W 074°08'0 0.1
2015-Aug-26 12:33N 40°39' W 074°08'0 0.0
2015-Aug-26 11:33N 40°38' W 074°08'0 0.0
2015-Aug-26 10:33N 40°38' W 074°08'0 0.0
2015-Aug-26 09:33N 40°38' W 074°08'0 0.0
2015-Aug-26 08:33N 40°38' W 074°08'0 0.0
2015-Aug-26 07:33N 40°38' W 074°08'0 0.0
2015-Aug-26 06:33N 40°38' W 074°08'0 0.0
2015-Aug-26 05:33N 40°38' W 074°08'0 0.0
2015-Aug-26 04:33N 40°38' W 074°08'0 0.0
2015-Aug-26 03:33N 40°38' W 074°08'0 0.0
2015-Aug-26 02:33N 40°38' W 074°08'0 0.0
2015-Aug-26 01:33N 40°38' W 074°08'5 4.7
2015-Aug-26 00:33N 40°41' W 074°02'  

Dump ship's entire track history